Time;durP1;ratioP1;P1;durP2;ratioP2;P2;SDS_P1;SDS_P2;PMS_P1;PMS_P2;Temp;Humidity;BMP_temperature;BMP_pressure;BME280_temperature;BME280_humidity;BME280_pressure;Samples;Min_cycle;Max_cycle;Signal;HPM_P1;HPM_P2
2023/06/08 00:01:32;;;;;;;4.35;2.92;;;19.00;46.70;;;;;;4981579;28;20034;-89
2023/06/08 00:04:05;;;;;;;4.57;3.03;;;18.90;46.50;;;;;;4983671;28;20042;-89
2023/06/08 00:06:33;;;;;;;3.47;2.80;;;18.90;46.60;;;;;;4982423;28;20061;-90
2023/06/08 00:09:06;;;;;;;4.00;2.80;;;18.80;46.50;;;;;;4982616;28;20575;-88
2023/06/08 00:11:36;;;;;;;4.95;2.95;;;18.80;46.60;;;;;;4982720;28;20046;-90
2023/06/08 00:14:02;;;;;;;4.88;2.95;;;18.80;46.70;;;;;;4994376;28;20034;-88
2023/06/08 00:16:29;;;;;;;3.97;3.30;;;18.70;46.60;;;;;;4976109;28;20053;-88
2023/06/08 00:18:56;;;;;;;5.20;2.95;;;18.70;46.80;;;;;;4985241;28;20022;-90
2023/06/08 00:21:26;;;;;;;4.80;3.60;;;18.60;46.60;;;;;;4979623;28;20041;-88
2023/06/08 00:23:52;;;;;;;3.15;2.63;;;18.60;46.80;;;;;;4986267;28;20137;-88
2023/06/08 00:26:26;;;;;;;5.87;2.83;;;18.50;46.60;;;;;;4977959;28;20037;-89
2023/06/08 00:28:52;;;;;;;4.07;2.70;;;18.50;46.70;;;;;;4994704;28;20285;-88
2023/06/08 00:31:21;;;;;;;4.45;2.80;;;18.40;46.60;;;;;;4982832;28;20590;-91
2023/06/08 00:33:49;;;;;;;3.42;2.63;;;18.30;46.50;;;;;;4983645;28;20396;-89
2023/06/08 00:36:16;;;;;;;5.05;3.08;;;18.30;46.70;;;;;;4993523;28;20388;-87
2023/06/08 00:38:42;;;;;;;3.10;2.75;;;18.30;46.80;;;;;;4966232;28;20336;-88
2023/06/08 00:41:11;;;;;;;5.13;3.53;;;18.30;46.80;;;;;;4977948;28;20042;-88
2023/06/08 00:43:37;;;;;;;3.40;2.70;;;18.20;46.70;;;;;;4975806;28;20049;-88
2023/06/08 00:46:07;;;;;;;2.67;2.30;;;18.20;46.80;;;;;;4984027;28;20095;-87
2023/06/08 00:48:41;;;;;;;3.55;3.00;;;18.20;46.90;;;;;;4961934;28;20141;-87
2023/06/08 00:51:08;;;;;;;4.00;2.90;;;18.10;46.70;;;;;;4983357;28;20069;-87
2023/06/08 00:53:36;;;;;;;4.75;3.08;;;18.10;46.80;;;;;;4977862;28;20046;-89
2023/06/08 00:56:03;;;;;;;3.90;2.78;;;18.00;46.70;;;;;;4994136;28;20458;-90
2023/06/08 00:58:30;;;;;;;3.05;2.50;;;18.00;46.80;;;;;;4980927;28;20394;-89
2023/06/08 01:00:59;;;;;;;4.53;3.45;;;18.00;46.90;;;;;;4980230;28;20134;-90
2023/06/08 01:03:33;;;;;;;3.67;2.70;;;17.90;46.80;;;;;;4980672;28;20070;-89
2023/06/08 01:06:07;;;;;;;4.15;3.47;;;17.90;46.90;;;;;;4975181;28;20043;-88
2023/06/08 01:08:54;;;;;;;3.92;2.88;;;17.80;46.80;;;;;;4974285;28;20130;-88
2023/06/08 01:11:36;;;;;;;4.55;3.30;;;17.80;46.90;;;;;;4980979;28;20039;-89
2023/06/08 01:14:44;;;;;;;4.05;2.97;;;17.70;46.70;;;;;;4979921;28;20035;-90
2023/06/08 01:17:14;;;;;;;5.05;3.00;;;17.70;47.50;;;;;;5003787;28;20061;-89
2023/06/08 01:20:06;;;;;;;4.05;2.97;;;17.60;46.60;;;;;;4982439;28;20047;-90
2023/06/08 01:22:35;;;;;;;4.18;2.80;;;17.50;46.60;;;;;;4977262;28;20030;-91
2023/06/08 01:25:03;;;;;;;5.47;3.78;;;17.50;46.60;;;;;;4987418;28;20502;-90
2023/06/08 01:27:36;;;;;;;5.47;3.25;;;17.40;46.60;;;;;;4979634;28;20453;-91
2023/06/08 01:30:07;;;;;;;2.65;2.45;;;17.40;46.70;;;;;;4993128;28;20061;-91
2023/06/08 01:32:36;;;;;;;4.53;2.83;;;17.30;46.70;;;;;;4979390;28;20046;-90
2023/06/08 01:35:02;;;;;;;6.53;3.42;;;17.20;46.50;;;;;;4991133;28;20041;-91
2023/06/08 01:37:35;;;;;;;4.53;2.90;;;17.30;46.80;;;;;;4996724;28;20054;-91
2023/06/08 01:40:28;;;;;;;4.57;3.22;;;17.20;46.70;;;;;;4978134;28;20471;-91
2023/06/08 01:42:54;;;;;;;3.72;3.17;;;17.20;46.70;;;;;;4986824;28;20046;-90
2023/06/08 01:45:24;;;;;;;4.68;3.10;;;17.10;46.60;;;;;;4982440;28;20045;-90
2023/06/08 01:48:00;;;;;;;4.20;2.92;;;17.10;46.70;;;;;;4974484;28;20050;-90
2023/06/08 01:50:28;;;;;;;4.45;3.55;;;17.10;46.70;;;;;;4988895;28;20038;-90
2023/06/08 01:52:58;;;;;;;4.95;3.08;;;17.00;46.50;;;;;;5004838;28;20038;-90
2023/06/08 01:55:25;;;;;;;4.47;3.13;;;17.00;46.60;;;;;;4995842;28;20054;-90
2023/06/08 01:58:00;;;;;;;3.88;2.90;;;16.90;46.50;;;;;;4997240;28;20045;-89
2023/06/08 02:00:26;;;;;;;4.35;3.30;;;16.90;46.60;;;;;;4984715;28;20062;-87
2023/06/08 02:02:55;;;;;;;4.10;3.30;;;16.90;46.60;;;;;;4984906;28;20034;-88
2023/06/08 02:05:22;;;;;;;3.25;2.80;;;16.90;46.60;;;;;;4993515;28;20046;-90
2023/06/08 02:07:48;;;;;;;4.97;3.45;;;16.80;46.50;;;;;;4994752;28;20054;-91
2023/06/08 02:10:14;;;;;;;4.38;3.13;;;16.80;46.60;;;;;;4991729;28;20095;-90
2023/06/08 02:12:43;;;;;;;6.75;3.97;;;16.70;46.50;;;;;;4972797;28;20471;-90
2023/06/08 02:15:18;;;;;;;3.80;3.40;;;16.70;46.50;;;;;;4974243;28;20142;-89
2023/06/08 02:17:44;;;;;;;4.32;3.28;;;16.70;46.60;;;;;;4982166;28;20047;-90
2023/06/08 02:20:10;;;;;;;4.97;3.67;;;16.60;46.50;;;;;;4991166;28;20030;-90
2023/06/08 02:22:38;;;;;;;3.92;3.13;;;16.60;46.60;;;;;;5003082;28;20039;-91
2023/06/08 02:25:06;;;;;;;4.13;3.08;;;16.60;46.70;;;;;;4988491;28;20022;-89
2023/06/08 02:27:36;;;;;;;6.70;3.35;;;16.50;46.60;;;;;;4988561;28;20064;-86
2023/06/08 02:30:08;;;;;;;4.35;3.20;;;16.50;46.70;;;;;;4983807;28;20030;-88
2023/06/08 02:32:41;;;;;;;4.68;3.08;;;16.40;46.60;;;;;;4992103;28;20517;-88
2023/06/08 02:35:08;;;;;;;4.70;3.35;;;16.40;46.60;;;;;;4987789;28;20046;-86
2023/06/08 02:37:38;;;;;;;6.68;3.83;;;16.30;46.50;;;;;;4986447;28;20049;-88
2023/06/08 02:40:05;;;;;;;5.78;3.33;;;16.30;46.60;;;;;;4988591;28;20034;-88
2023/06/08 02:42:40;;;;;;;3.72;3.05;;;16.30;46.70;;;;;;4971631;28;20031;-87
2023/06/08 02:45:11;;;;;;;3.13;2.72;;;16.30;46.70;;;;;;4992523;28;20092;-88
2023/06/08 02:47:39;;;;;;;4.55;2.88;;;16.20;46.50;;;;;;4985512;28;20153;-88
2023/06/08 02:50:06;;;;;;;4.45;3.50;;;16.20;46.60;;;;;;4984638;28;20041;-89
2023/06/08 02:52:32;;;;;;;3.28;2.97;;;16.20;46.60;;;;;;4987183;28;20531;-88
2023/06/08 02:55:01;;;;;;;4.45;3.13;;;16.10;46.50;;;;;;4982414;28;20034;-87
2023/06/08 02:57:40;;;;;;;6.18;3.45;;;16.10;46.60;;;;;;4987265;28;20046;-88
2023/06/08 03:00:14;;;;;;;4.10;3.58;;;16.10;46.70;;;;;;4990043;28;20084;-88
2023/06/08 03:03:01;;;;;;;4.68;3.33;;;16.10;46.70;;;;;;4970698;28;20518;-88
2023/06/08 03:05:29;;;;;;;3.70;3.10;;;16.00;46.60;;;;;;4972635;28;20544;-90
2023/06/08 03:08:02;;;;;;;11.80;4.00;;;16.00;46.60;;;;;;4980636;28;20398;-91
2023/06/08 03:10:37;;;;;;;3.95;3.00;;;16.00;46.70;;;;;;4991841;28;20078;-88
2023/06/08 03:13:09;;;;;;;4.40;3.30;;;15.90;46.60;;;;;;5004468;28;20117;-89
2023/06/08 03:15:37;;;;;;;7.82;4.05;;;15.90;46.70;;;;;;4989024;28;20077;-89
2023/06/08 03:18:03;;;;;;;4.78;3.90;;;15.90;46.80;;;;;;4973767;28;20042;-89
2023/06/08 03:20:34;;;;;;;4.60;3.20;;;15.90;46.80;;;;;;4989659;28;20031;-87
2023/06/08 03:23:05;;;;;;;5.78;3.33;;;15.80;46.70;;;;;;4995031;28;20049;-87
2023/06/08 03:25:31;;;;;;;3.50;3.20;;;15.80;46.70;;;;;;4995776;28;20045;-89
2023/06/08 03:27:58;;;;;;;3.83;3.47;;;15.80;46.80;;;;;;4990012;28;20042;-89
2023/06/08 03:30:27;;;;;;;6.15;3.92;;;15.70;46.70;;;;;;4996874;28;20052;-89
2023/06/08 03:32:55;;;;;;;5.00;3.38;;;15.70;46.80;;;;;;4989016;28;20395;-90
2023/06/08 03:35:33;;;;;;;6.25;3.20;;;15.70;46.90;;;;;;4989545;28;20042;-89
2023/06/08 03:38:32;;;;;;;3.92;3.42;;;15.60;46.80;;;;;;4989377;28;20464;-89
2023/06/08 03:41:06;;;;;;;4.53;3.42;;;15.60;46.80;;;;;;4988053;28;20548;-88
2023/06/08 03:43:34;;;;;;;4.55;3.40;;;15.60;46.80;;;;;;4988142;28;20042;-90
2023/06/08 03:46:01;;;;;;;5.07;3.45;;;15.50;46.70;;;;;;4988969;28;20580;-88
2023/06/08 03:48:31;;;;;;;4.57;3.05;;;15.50;46.80;;;;;;4985554;28;20524;-89
2023/06/08 03:51:00;;;;;;;6.65;3.10;;;15.50;46.80;;;;;;4984293;28;20101;-90
2023/06/08 03:53:35;;;;;;;4.10;2.90;;;15.50;46.90;;;;;;4989156;28;20046;-88
2023/06/08 03:56:05;;;;;;;4.63;3.40;;;15.50;46.90;;;;;;4978259;28;20043;-89
2023/06/08 03:58:35;;;;;;;3.78;3.42;;;15.50;46.90;;;;;;4986119;28;20042;-88
2023/06/08 04:01:27;;;;;;;4.13;2.78;;;15.50;46.90;;;;;;4972859;28;20069;-87
2023/06/08 04:03:56;;;;;;;6.00;3.92;;;15.50;46.90;;;;;;4964940;28;20487;-88
2023/06/08 04:06:23;;;;;;;4.75;3.20;;;15.50;46.90;;;;;;4978894;28;20066;-88
2023/06/08 04:08:51;;;;;;;4.28;3.75;;;15.40;46.70;;;;;;4987542;28;20073;-88
2023/06/08 04:11:18;;;;;;;6.05;3.70;;;15.50;47.50;;;;;;4969911;28;20078;-88
2023/06/08 04:13:44;;;;;;;4.35;3.88;;;15.40;46.70;;;;;;4969993;28;20693;-88
2023/06/08 04:16:20;;;;;;;4.95;3.92;;;15.50;46.90;;;;;;4986591;28;20081;-90
2023/06/08 04:18:51;;;;;;;6.68;4.07;;;15.50;46.90;;;;;;4970812;28;20034;-89
2023/06/08 04:21:26;;;;;;;4.85;4.18;;;15.40;46.80;;;;;;4997497;28;20053;-89
2023/06/08 04:24:00;;;;;;;4.38;3.97;;;15.40;46.70;;;;;;4993480;28;20141;-90
2023/06/08 04:26:30;;;;;;;4.82;3.70;;;15.50;47.00;;;;;;4984558;28;20061;-89
2023/06/08 04:28:56;;;;;;;5.35;4.35;;;15.40;46.80;;;;;;4976610;28;20102;-89
2023/06/08 04:31:33;;;;;;;6.05;3.97;;;15.40;46.80;;;;;;4986549;28;20066;-89
2023/06/08 04:33:59;;;;;;;8.00;3.65;;;15.40;46.80;;;;;;4986740;28;20109;-89
2023/06/08 04:36:26;;;;;;;5.55;4.07;;;15.50;47.00;;;;;;4976645;28;20053;-88
2023/06/08 04:38:57;;;;;;;5.13;3.90;;;15.50;47.00;;;;;;5002934;28;20033;-88
2023/06/08 04:41:29;;;;;;;8.13;5.80;;;15.50;47.00;;;;;;4987433;28;20113;-89
2023/06/08 04:44:01;;;;;;;7.82;4.57;;;15.50;47.00;;;;;;4986211;28;20026;-89
2023/06/08 04:46:30;;;;;;;4.25;3.85;;;15.50;47.00;;;;;;4980459;28;20290;-88
2023/06/08 04:48:57;;;;;;;4.22;3.83;;;15.60;47.10;;;;;;4979371;28;20045;-88
2023/06/08 04:51:23;;;;;;;5.03;4.30;;;15.50;46.90;;;;;;4976658;28;20035;-90
2023/06/08 04:54:13;;;;;;;6.63;4.50;;;15.60;47.10;;;;;;4985044;28;20037;-89
2023/06/08 04:56:42;;;;;;;5.18;4.65;;;15.60;47.00;;;;;;4992553;28;20054;-89
2023/06/08 04:59:09;;;;;;;4.53;4.13;;;15.60;47.00;;;;;;4997807;28;20045;-90
2023/06/08 05:01:36;;;;;;;4.35;3.78;;;15.60;47.00;;;;;;4990465;28;20038;-89
2023/06/08 05:04:08;;;;;;;6.65;3.92;;;15.60;46.90;;;;;;4989323;28;20535;-89
2023/06/08 05:06:35;;;;;;;4.32;3.92;;;15.60;46.90;;;;;;4976661;28;20089;-89
2023/06/08 05:09:12;;;;;;;5.65;3.85;;;15.60;46.90;;;;;;4990942;28;20056;-90
2023/06/08 05:11:44;;;;;;;7.00;4.32;;;15.60;46.90;;;;;;4985902;28;20034;-84
2023/06/08 05:14:30;;;;;;;5.45;3.65;;;15.60;46.90;;;;;;4987272;28;20450;-87
2023/06/08 05:16:56;;;;;;;5.97;3.85;;;15.60;46.80;;;;;;4992294;28;20113;-83
2023/06/08 05:19:22;;;;;;;4.20;3.10;;;15.70;47.00;;;;;;4987754;28;20053;-82
2023/06/08 05:21:49;;;;;;;4.93;3.83;;;15.60;46.80;;;;;;4973898;28;20108;-82
2023/06/08 05:24:15;;;;;;;4.40;4.00;;;15.60;46.80;;;;;;4983114;28;20042;-82
2023/06/08 05:26:42;;;;;;;5.30;3.95;;;15.60;46.80;;;;;;4994779;28;20513;-85
2023/06/08 05:29:08;;;;;;;4.97;4.05;;;15.70;47.00;;;;;;4987738;28;20445;-86
2023/06/08 05:31:35;;;;;;;5.68;4.10;;;15.70;47.00;;;;;;4986493;28;20071;-85
2023/06/08 05:34:05;;;;;;;4.40;3.65;;;15.70;46.90;;;;;;4988770;28;20502;-91
2023/06/08 05:36:31;;;;;;;4.18;3.67;;;15.70;46.80;;;;;;4996370;28;20050;-89
2023/06/08 05:39:03;;;;;;;3.88;3.55;;;15.70;46.80;;;;;;4991581;28;20545;-91
2023/06/08 05:41:30;;;;;;;4.13;3.70;;;15.80;46.90;;;;;;4999331;28;20117;-88
2023/06/08 05:43:59;;;;;;;5.25;4.43;;;15.80;46.80;;;;;;4992298;28;20042;-90
2023/06/08 05:46:25;;;;;;;5.15;4.43;;;15.90;46.90;;;;;;4986850;28;20521;-93
2023/06/08 05:48:51;;;;;;;5.15;3.97;;;15.90;46.80;;;;;;4985775;28;20413;-91
2023/06/08 05:51:20;;;;;;;4.30;3.88;;;15.90;46.70;;;;;;4995237;28;20100;-93
2023/06/08 05:53:49;;;;;;;9.05;5.13;;;16.00;46.90;;;;;;4983548;28;20397;-85
2023/06/08 05:56:18;;;;;;;8.32;5.25;;;16.00;46.70;;;;;;4982874;28;20065;-85
2023/06/08 05:58:44;;;;;;;5.10;4.53;;;16.00;46.60;;;;;;4980102;28;20030;-86
2023/06/08 06:01:11;;;;;;;7.10;4.82;;;16.00;46.70;;;;;;4978161;28;20046;-88
2023/06/08 06:03:40;;;;;;;5.70;4.50;;;15.90;46.70;;;;;;4974760;28;20031;-84
2023/06/08 06:06:13;;;;;;;6.93;4.43;;;15.90;46.80;;;;;;4972918;28;20123;-88
2023/06/08 06:08:39;;;;;;;5.05;4.55;;;15.90;46.80;;;;;;4981057;28;20473;-82
2023/06/08 06:11:05;;;;;;;6.38;5.07;;;15.90;46.90;;;;;;4974956;28;20038;-86
2023/06/08 06:13:34;;;;;;;6.18;4.65;;;15.80;46.90;;;;;;4979385;28;20469;-86
2023/06/08 06:16:05;;;;;;;5.03;4.55;;;15.80;47.00;;;;;;4974445;28;20487;-86
2023/06/08 06:18:35;;;;;;;5.55;4.25;;;15.80;47.00;;;;;;4981915;28;20053;-82
2023/06/08 06:21:07;;;;;;;5.97;5.25;;;15.90;47.30;;;;;;4977307;28;20041;-85
2023/06/08 06:23:33;;;;;;;4.63;4.15;;;15.90;47.20;;;;;;4977965;28;20023;-84
2023/06/08 06:26:21;;;;;;;8.85;5.43;;;15.90;47.20;;;;;;4967409;28;20042;-81
2023/06/08 06:28:50;;;;;;;5.32;4.35;;;16.00;47.30;;;;;;4973309;28;20046;-82
2023/06/08 06:31:39;;;;;;;7.35;4.65;;;16.20;47.60;;;;;;4974020;28;20125;-80
2023/06/08 06:34:08;;;;;;;5.82;3.90;;;16.50;47.80;;;;;;4974188;28;20289;-82
2023/06/08 06:36:34;;;;;;;6.10;4.40;;;16.70;47.90;;;;;;4976077;28;20301;-86
2023/06/08 06:39:04;;;;;;;7.10;4.50;;;16.90;48.10;;;;;;4977487;28;20125;-85
2023/06/08 06:41:30;;;;;;;4.72;4.25;;;17.10;48.20;;;;;;4974168;28;20041;-83
2023/06/08 06:43:59;;;;;;;7.32;4.30;;;17.20;48.20;;;;;;4972808;28;20030;-84
2023/06/08 06:46:38;;;;;;;5.55;4.00;;;17.40;48.50;;;;;;4976598;28;20058;-83
2023/06/08 06:49:04;;;;;;;4.93;4.10;;;17.60;48.60;;;;;;4975514;28;20034;-83
2023/06/08 06:51:30;;;;;;;4.30;3.78;;;17.70;48.50;;;;;;4979063;28;20064;-84
2023/06/08 06:54:16;;;;;;;5.63;3.88;;;17.90;48.70;;;;;;4972879;28;20054;-85
2023/06/08 06:56:42;;;;;;;5.40;3.50;;;18.20;48.80;;;;;;4980805;28;20045;-83
2023/06/08 06:59:12;;;;;;;3.53;3.00;;;18.50;48.90;;;;;;4982712;28;20042;-84
2023/06/08 07:01:38;;;;;;;4.68;3.25;;;18.70;48.80;;;;;;4988656;28;20046;-84
2023/06/08 07:04:05;;;;;;;7.00;3.78;;;18.90;48.80;;;;;;4981397;28;20383;-84
2023/06/08 07:06:35;;;;;;;3.22;2.90;;;19.10;48.80;;;;;;4986606;28;20737;-84
2023/06/08 07:09:07;;;;;;;3.60;3.10;;;19.30;48.90;;;;;;4989006;28;20490;-88
2023/06/08 07:11:45;;;;;;;3.42;3.05;;;19.50;48.80;;;;;;4987700;28;20078;-82
2023/06/08 07:14:11;;;;;;;3.88;3.47;;;20.00;49.20;;;;;;4991688;28;20166;-83
2023/06/08 07:16:40;;;;;;;4.78;3.10;;;20.40;48.80;;;;;;4982464;28;20050;-83
2023/06/08 07:19:07;;;;;;;4.22;3.35;;;20.90;48.70;;;;;;4984785;28;20041;-85
2023/06/08 07:21:38;;;;;;;4.35;3.55;;;21.10;48.40;;;;;;4984147;28;20042;-81
2023/06/08 07:24:09;;;;;;;3.92;3.58;;;21.30;48.40;;;;;;4986823;28;20034;-84
2023/06/08 07:26:38;;;;;;;4.70;3.50;;;21.60;48.60;;;;;;4980978;28;20101;-85
2023/06/08 07:29:04;;;;;;;3.47;3.17;;;21.80;48.50;;;;;;4990689;28;20030;-84
2023/06/08 07:31:31;;;;;;;4.45;3.42;;;22.10;48.50;;;;;;4989004;28;20145;-92
2023/06/08 07:33:57;;;;;;;4.50;3.25;;;22.20;48.30;;;;;;4988610;28;20098;-92
2023/06/08 07:36:44;;;;;;;4.65;3.33;;;22.70;48.60;;;;;;4968245;28;20093;-94
2023/06/08 07:39:13;;;;;;;3.10;2.80;;;23.40;48.40;;;;;;4991122;28;20031;-93
2023/06/08 07:41:39;;;;;;;5.35;3.25;;;24.10;48.20;;;;;;4998648;28;20124;-91
2023/06/08 07:44:08;;;;;;;3.88;3.00;;;24.60;47.80;;;;;;5001996;28;20042;-93
2023/06/08 07:46:34;;;;;;;4.30;3.17;;;25.00;47.60;;;;;;4981582;28;20370;-83
2023/06/08 07:49:00;;;;;;;3.40;2.65;;;25.10;46.90;;;;;;4979409;28;20077;-85
2023/06/08 07:51:26;;;;;;;3.72;3.17;;;25.20;46.80;;;;;;4966930;28;20113;-86
2023/06/08 07:53:55;;;;;;;3.22;2.90;;;25.60;46.50;;;;;;4976131;28;20038;-90
2023/06/08 07:56:27;;;;;;;3.65;3.20;;;26.20;45.80;;;;;;4988749;28;20078;-87
2023/06/08 07:58:53;;;;;;;4.10;3.30;;;26.70;45.00;;;;;;4985767;28;20041;-89
2023/06/08 08:01:19;;;;;;;5.03;3.28;;;27.10;44.20;;;;;;4985592;28;20141;-88
2023/06/08 08:03:52;;;;;;;9.07;3.60;;;27.30;43.90;;;;;;4972387;28;20042;-91
2023/06/08 08:06:21;;;;;;;4.63;3.30;;;27.30;44.00;;;;;;4984585;28;20026;-92
2023/06/08 08:08:47;;;;;;;5.00;3.13;;;27.20;44.10;;;;;;4992761;28;20038;-95
2023/06/08 08:11:13;;;;;;;3.88;2.63;;;27.10;44.20;;;;;;4975593;28;20483;-94
2023/06/08 08:13:42;;;;;;;5.38;3.88;;;27.00;44.20;;;;;;4994522;28;20042;-95
2023/06/08 08:16:08;;;;;;;3.38;2.97;;;26.80;44.10;;;;;;4989538;28;20113;-93
2023/06/08 08:18:34;;;;;;;3.78;3.38;;;26.70;44.00;;;;;;4998974;28;20065;-95
2023/06/08 08:21:09;;;;;;;4.00;2.67;;;26.60;43.90;;;;;;4988145;28;20379;-95
2023/06/08 08:23:37;;;;;;;4.72;2.90;;;26.50;43.80;;;;;;4986603;28;20082;-92
2023/06/08 08:26:03;;;;;;;4.70;3.58;;;26.50;43.70;;;;;;4994468;28;20544;-94
2023/06/08 08:28:29;;;;;;;7.53;3.13;;;26.40;43.60;;;;;;4983146;28;20085;-89
2023/06/08 08:30:56;;;;;;;4.70;3.50;;;26.30;43.50;;;;;;4975068;28;20422;-92
2023/06/08 08:33:28;;;;;;;5.30;3.30;;;26.30;43.50;;;;;;4971355;28;20094;-90
2023/06/08 08:35:54;;;;;;;4.03;3.33;;;26.30;43.40;;;;;;4978767;28;20137;-89
2023/06/08 08:38:23;;;;;;;5.80;3.53;;;26.30;43.20;;;;;;4986729;28;20080;-90
2023/06/08 08:40:51;;;;;;;4.65;3.47;;;26.30;43.10;;;;;;4991025;28;20054;-89
2023/06/08 08:43:28;;;;;;;3.10;2.85;;;26.30;43.70;;;;;;4987967;28;20045;-90
2023/06/08 08:45:57;;;;;;;4.03;3.53;;;26.40;43.00;;;;;;4983892;28;20077;-86
2023/06/08 08:48:44;;;;;;;3.70;3.08;;;26.40;42.80;;;;;;4979429;28;20564;-90
2023/06/08 08:51:19;;;;;;;3.95;3.10;;;26.40;42.70;;;;;;4962317;28;20118;-88
2023/06/08 08:53:50;;;;;;;4.80;3.42;;;26.40;42.50;;;;;;4967966;28;20039;-90
2023/06/08 08:56:21;;;;;;;3.47;2.80;;;26.50;42.50;;;;;;4974534;28;20081;-88
2023/06/08 08:58:51;;;;;;;5.43;3.03;;;26.50;42.30;;;;;;4980146;28;20038;-89
2023/06/08 09:01:21;;;;;;;;;;;26.60;42.30;;;;;;4976318;28;20109;-89
2023/06/08 09:03:50;;;;;;;5.72;3.50;;;26.70;42.40;;;;;;4981512;28;19918;-88
2023/06/08 09:06:16;;;;;;;3.53;3.22;;;26.70;42.40;;;;;;4978471;28;20180;-87
2023/06/08 09:08:42;;;;;;;4.43;2.72;;;26.80;42.30;;;;;;4983612;28;20042;-89
2023/06/08 09:11:10;;;;;;;3.83;2.90;;;26.90;42.20;;;;;;4971255;28;20562;-87
2023/06/08 09:13:38;;;;;;;4.13;3.58;;;26.90;42.10;;;;;;4984744;28;20080;-88
2023/06/08 09:16:11;;;;;;;3.38;2.92;;;27.00;41.90;;;;;;4982667;28;20042;-84
2023/06/08 09:18:38;;;;;;;4.15;2.97;;;27.00;42.30;;;;;;4968989;28;20285;-87
2023/06/08 09:21:21;;;;;;;;;;;27.20;41.80;;;;;;4972067;28;20042;-88
2023/06/08 09:24:16;;;;;;;4.45;3.13;;;27.30;41.80;;;;;;4986337;28;20004;-86
2023/06/08 09:26:56;;;;;;;3.35;3.05;;;27.30;41.60;;;;;;4982162;28;20409;-87
2023/06/08 09:29:41;;;;;;;2.97;2.63;;;27.40;41.70;;;;;;4974679;28;20117;-88
2023/06/08 09:32:16;;;;;;;3.45;3.15;;;27.50;41.40;;;;;;4980171;28;20039;-86
2023/06/08 09:34:56;;;;;;;3.55;2.88;;;27.50;41.40;;;;;;4979666;28;20041;-86
2023/06/08 09:37:33;;;;;;;3.25;2.72;;;27.60;41.80;;;;;;4976775;28;20134;-85
2023/06/08 09:40:00;;;;;;;3.40;3.10;;;27.70;41.10;;;;;;4981033;28;20137;-88
2023/06/08 09:42:50;;;;;;;11.25;3.38;;;27.80;41.10;;;;;;4982716;28;20029;-89
2023/06/08 09:45:17;;;;;;;7.30;3.92;;;27.80;40.70;;;;;;4979637;28;20044;-86
2023/06/08 09:47:44;;;;;;;3.78;3.47;;;27.90;40.70;;;;;;4983870;28;20054;-85
2023/06/08 09:50:11;;;;;;;5.10;3.42;;;27.90;40.60;;;;;;4981388;28;20293;-82
2023/06/08 09:52:38;;;;;;;5.22;3.35;;;27.90;40.50;;;;;;4983147;28;20049;-83
2023/06/08 09:55:05;;;;;;;3.63;3.33;;;28.00;40.40;;;;;;4963137;28;20030;-83
2023/06/08 09:57:36;;;;;;;4.07;3.22;;;28.00;40.20;;;;;;4978350;28;20429;-81
2023/06/08 10:00:20;;;;;;;3.95;3.08;;;28.10;40.10;;;;;;4977215;28;20076;-82
2023/06/08 10:03:11;;;;;;;4.72;3.08;;;28.20;40.10;;;;;;4978416;28;20440;-83
2023/06/08 10:05:43;;;;;;;30.60;9.38;;;28.30;39.90;;;;;;4984109;28;20052;-85
2023/06/08 10:08:13;;;;;;;30.10;8.98;;;28.40;39.90;;;;;;4987126;28;20708;-85
2023/06/08 10:10:41;;;;;;;29.38;10.55;;;28.50;39.70;;;;;;4983663;28;20544;-87
2023/06/08 10:13:14;;;;;;;38.17;11.13;;;28.70;39.60;;;;;;4989001;28;20085;-89
2023/06/08 10:15:42;;;;;;;28.17;10.05;;;28.90;39.50;;;;;;4972967;28;20075;-87
2023/06/08 10:18:13;;;;;;;27.35;8.85;;;29.00;39.30;;;;;;4981869;28;20034;-88
2023/06/08 10:20:40;;;;;;;21.38;6.93;;;29.20;39.20;;;;;;4977169;28;20042;-87
2023/06/08 10:23:07;;;;;;;23.75;8.30;;;29.30;39.00;;;;;;4976076;28;20561;-87
2023/06/08 10:25:35;;;;;;;15.32;7.82;;;29.50;38.90;;;;;;4981554;28;20045;-86
2023/06/08 10:28:08;;;;;;;15.07;7.25;;;29.60;38.70;;;;;;4979467;28;20046;-86
2023/06/08 10:30:39;;;;;;;20.83;6.30;;;29.70;38.50;;;;;;4981378;28;20041;-84
2023/06/08 10:33:25;;;;;;;14.50;6.47;;;29.90;38.40;;;;;;4980052;28;20042;-86
2023/06/08 10:36:03;;;;;;;16.83;6.25;;;30.00;38.10;;;;;;4972112;28;20077;-87
2023/06/08 10:38:34;;;;;;;15.70;6.03;;;30.10;38.00;;;;;;4980305;28;20065;-83
2023/06/08 10:41:03;;;;;;;12.63;6.03;;;30.30;38.00;;;;;;4985701;28;20038;-85
2023/06/08 10:43:32;;;;;;;14.80;5.43;;;30.40;37.80;;;;;;4987207;28;21017;-86
2023/06/08 10:45:59;;;;;;;8.80;4.88;;;30.50;38.30;;;;;;4995861;28;20045;-90
2023/06/08 10:48:38;;;;;;;23.52;9.57;;;30.60;37.50;;;;;;4980693;28;20031;-83
2023/06/08 10:51:22;;;;;;;28.60;9.55;;;30.70;37.30;;;;;;4978043;28;20121;-86
2023/06/08 10:53:59;;;;;;;24.02;9.43;;;30.70;37.30;;;;;;4977708;28;20509;-87
2023/06/08 10:56:30;;;;;;;21.83;9.85;;;30.80;37.60;;;;;;4976695;28;20042;-89
2023/06/08 10:58:56;;;;;;;23.08;8.82;;;30.70;37.60;;;;;;4988186;28;20033;-87
2023/06/08 11:01:31;;;;;;;18.30;7.82;;;30.70;37.70;;;;;;4982871;28;20118;-85
2023/06/08 11:04:06;;;;;;;19.70;9.15;;;30.60;37.70;;;;;;4982930;28;20038;-84
2023/06/08 11:06:33;;;;;;;19.05;8.65;;;30.70;37.80;;;;;;4982315;28;20045;-87
2023/06/08 11:08:59;;;;;;;16.80;7.47;;;30.60;37.70;;;;;;4982112;28;20488;-89
2023/06/08 11:11:26;;;;;;;12.00;6.72;;;30.70;37.80;;;;;;4984056;28;20038;-85
2023/06/08 11:13:52;;;;;;;12.18;6.95;;;30.80;37.80;;;;;;4979785;28;20041;-90
2023/06/08 11:16:27;;;;;;;13.05;6.47;;;30.90;37.60;;;;;;4975327;28;20414;-88
2023/06/08 11:18:58;;;;;;;12.20;6.38;;;31.20;37.50;;;;;;4981679;28;20035;-92
2023/06/08 11:21:26;;;;;;;10.50;5.72;;;31.40;37.30;;;;;;4990016;28;20065;-91
2023/06/08 11:23:55;;;;;;;13.38;5.57;;;31.50;37.10;;;;;;4994807;28;20026;-92
2023/06/08 11:26:24;;;;;;;11.05;5.70;;;31.80;37.00;;;;;;4980888;28;20113;-91
2023/06/08 11:28:50;;;;;;;8.77;5.05;;;31.90;36.80;;;;;;4985397;28;20409;-90
2023/06/08 11:31:16;;;;;;;7.95;4.82;;;32.00;36.60;;;;;;4980361;28;20204;-89
2023/06/08 11:33:51;;;;;;;7.57;4.63;;;32.20;36.50;;;;;;4983430;28;20076;-91
2023/06/08 11:36:20;;;;;;;10.65;5.15;;;32.30;36.30;;;;;;4984479;28;20035;-91
2023/06/08 11:38:49;;;;;;;9.75;5.18;;;32.40;36.20;;;;;;4986757;28;20163;-89
2023/06/08 11:41:15;;;;;;;5.65;4.25;;;32.60;36.00;;;;;;4992228;28;20034;-91
2023/06/08 11:43:42;;;;;;;6.95;3.95;;;32.70;35.90;;;;;;4984554;28;20465;-91
2023/06/08 11:46:10;;;;;;;5.65;3.80;;;32.80;35.80;;;;;;4984966;28;20141;-89
2023/06/08 11:48:46;;;;;;;5.65;3.60;;;32.90;35.80;;;;;;4980130;28;20034;-90
2023/06/08 11:51:12;;;;;;;5.47;3.80;;;33.00;35.70;;;;;;4983331;28;20057;-91
2023/06/08 11:53:38;;;;;;;7.93;4.50;;;33.10;35.60;;;;;;4980941;28;20044;-88
2023/06/08 11:56:06;;;;;;;5.57;3.60;;;33.20;35.60;;;;;;4982391;28;20037;-91
2023/06/08 11:58:37;;;;;;;5.32;3.58;;;33.20;35.40;;;;;;4984782;28;20476;-90
2023/06/08 12:01:09;;;;;;;5.10;4.10;;;33.30;35.30;;;;;;4976153;28;20137;-92
2023/06/08 12:03:45;;;;;;;4.38;3.60;;;33.40;35.20;;;;;;4978782;28;20358;-89
2023/06/08 12:06:13;;;;;;;3.97;3.58;;;33.50;35.10;;;;;;4981630;28;20572;-90
2023/06/08 12:08:40;;;;;;;5.25;3.40;;;33.60;35.20;;;;;;4983026;28;20038;-90
2023/06/08 12:11:11;;;;;;;4.65;3.28;;;33.70;35.10;;;;;;4973350;28;20030;-89
2023/06/08 12:13:42;;;;;;;4.32;3.28;;;33.80;35.00;;;;;;4982010;28;20034;-91
2023/06/08 12:16:10;;;;;;;4.47;4.05;;;33.80;34.90;;;;;;5000383;28;20039;-91
2023/06/08 12:18:38;;;;;;;3.30;3.00;;;33.90;34.90;;;;;;4973487;28;20058;-92
2023/06/08 12:21:08;;;;;;;4.95;3.38;;;34.00;34.80;;;;;;4981130;28;20048;-92
2023/06/08 12:23:54;;;;;;;4.22;3.70;;;34.10;34.70;;;;;;4957839;28;20204;-91
2023/06/08 12:26:20;;;;;;;5.18;3.88;;;34.20;34.60;;;;;;4961782;28;20054;-91
2023/06/08 12:28:47;;;;;;;4.45;3.53;;;34.30;34.50;;;;;;4967961;28;20576;-90
2023/06/08 12:31:13;;;;;;;4.60;3.40;;;34.40;34.50;;;;;;4968481;28;20046;-92
2023/06/08 12:33:39;;;;;;;4.95;3.58;;;34.50;34.40;;;;;;4983646;28;20026;-94
2023/06/08 12:36:06;;;;;;;3.47;3.17;;;34.60;34.30;;;;;;4989081;28;20121;-89
2023/06/08 12:38:32;;;;;;;3.67;3.30;;;34.70;34.20;;;;;;4979869;28;20034;-91
2023/06/08 12:41:00;;;;;;;4.82;3.25;;;34.80;34.20;;;;;;4987619;28;20352;-93
2023/06/08 12:43:26;;;;;;;3.45;3.05;;;34.90;34.10;;;;;;4986225;28;20038;-91
2023/06/08 12:45:53;;;;;;;3.80;3.03;;;35.00;34.10;;;;;;4982007;28;20030;-93
2023/06/08 12:48:20;;;;;;;3.47;3.17;;;35.10;34.00;;;;;;4978390;28;20042;-93
2023/06/08 12:50:46;;;;;;;3.65;3.28;;;35.20;33.90;;;;;;4976818;28;20433;-92
2023/06/08 12:53:15;;;;;;;4.15;3.03;;;35.30;33.80;;;;;;4986706;28;20486;-91
2023/06/08 12:55:42;;;;;;;5.85;3.03;;;35.50;34.50;;;;;;4978988;28;20046;-92
2023/06/08 12:58:24;;;;;;;4.07;3.05;;;35.60;33.70;;;;;;4973070;28;20097;-92
2023/06/08 13:00:53;;;;;;;4.03;2.80;;;35.70;33.60;;;;;;4981092;28;20061;-90
2023/06/08 13:03:24;;;;;;;2.78;2.53;;;35.80;33.50;;;;;;4978440;28;20498;-92